Time;durP1;ratioP1;P1;durP2;ratioP2;P2;SDS_P1;SDS_P2;PMS_P1;PMS_P2;Temp;Humidity;BMP_temperature;BMP_pressure;BME280_temperature;BME280_humidity;BME280_pressure;Samples;Min_cycle;Max_cycle;Signal;HPM_P1;HPM_P2
2022/04/08 00:01:35;;;;;;;;;;;;;;;8.41;80.67;97397.14;1636828;84;25733;-71
2022/04/08 00:04:02;;;;;;;5.83;1.60;;;;;;;8.41;80.86;97369.66;1636662;85;25567;-71
2022/04/08 00:06:28;;;;;;;2.47;1.45;;;;;;;8.38;80.67;97370.95;1658742;85;25682;-71
2022/04/08 00:08:57;;;;;;;2.72;1.62;;;;;;;8.37;80.94;97393.63;1670028;85;25526;-73
2022/04/08 00:11:25;;;;;;;4.20;1.77;;;;;;;8.36;80.83;97410.92;1646033;85;27520;-73
2022/04/08 00:13:53;;;;;;;1.80;1.60;;;;;;;8.35;80.89;97402.66;1638354;85;25633;-75
2022/04/08 00:16:20;;;;;;;2.80;1.70;;;;;;;8.33;81.00;97412.44;1667890;85;25466;-73
2022/04/08 00:18:48;;;;;;;3.72;1.45;;;;;;;8.31;81.50;97424.70;1649076;85;25873;-73
2022/04/08 00:21:15;;;;;;;1.98;1.60;;;;;;;8.30;81.48;97422.59;1669570;85;25599;-73
2022/04/08 00:23:42;;;;;;;3.10;1.75;;;;;;;8.28;81.52;97424.87;1650223;85;27328;-73
2022/04/08 00:26:08;;;;;;;3.17;1.67;;;;;;;8.26;81.57;97417.73;1653107;85;25866;-73
2022/04/08 00:28:35;;;;;;;4.50;1.55;;;;;;;8.23;82.04;97415.76;1641324;85;25778;-73
2022/04/08 00:31:02;;;;;;;3.67;1.45;;;;;;;8.21;81.66;97430.16;1648451;85;25679;-73
2022/04/08 00:33:32;;;;;;;2.75;1.60;;;;;;;8.18;81.53;97430.88;1658713;85;25678;-73
2022/04/08 00:36:00;;;;;;;2.92;1.60;;;;;;;8.17;81.75;97423.93;1660954;85;27342;-73
2022/04/08 00:38:26;;;;;;;3.58;1.45;;;;;;;8.15;81.85;97432.95;1645417;85;25487;-73
2022/04/08 00:40:53;;;;;;;1.92;1.37;;;;;;;8.13;82.40;97425.23;1654898;85;25560;-73
2022/04/08 00:43:20;;;;;;;2.95;1.37;;;;;;;8.13;82.04;97417.16;1646316;85;25748;-73
2022/04/08 00:45:46;;;;;;;6.05;1.80;;;;;;;8.13;82.05;97422.53;1668709;84;25681;-73
2022/04/08 00:48:13;;;;;;;2.27;1.45;;;;;;;8.13;82.21;97413.69;1664360;85;27557;-73
2022/04/08 00:50:42;;;;;;;2.83;1.50;;;;;;;8.12;82.05;97390.59;1657134;85;25972;-73
2022/04/08 00:53:09;;;;;;;;;;;;;;;8.12;82.11;97390.05;1654134;85;25472;-73
2022/04/08 00:55:37;;;;;;;1.42;1.25;;;;;;;8.12;82.07;97395.97;1658683;85;26187;-73
2022/04/08 00:58:05;;;;;;;5.05;1.50;;;;;;;8.10;82.16;97386.91;1647696;85;25572;-73
2022/04/08 01:00:35;;;;;;;2.17;1.45;;;;;;;8.08;81.99;97395.92;1651623;85;27929;-73
2022/04/08 01:03:03;;;;;;;2.87;1.45;;;;;;;8.08;82.03;97387.08;1650030;85;25458;-73
2022/04/08 01:05:29;;;;;;;3.52;1.50;;;;;;;8.05;81.96;97388.57;1660464;85;25632;-73
2022/04/08 01:07:56;;;;;;;3.22;1.75;;;;;;;8.04;82.44;97393.19;1669033;85;26214;-74
2022/04/08 01:10:23;;;;;;;3.00;1.42;;;;;;;8.02;82.41;97391.44;1645859;85;25480;-73
2022/04/08 01:12:50;;;;;;;2.55;1.32;;;;;;;8.00;82.26;97393.72;1657569;85;27401;-73
2022/04/08 01:15:19;;;;;;;4.83;1.30;;;;;;;7.99;82.36;97398.11;1641164;85;25802;-73
2022/04/08 01:17:46;;;;;;;5.10;1.70;;;;;;;7.98;82.29;97403.28;1644052;85;25406;-73
2022/04/08 01:20:13;;;;;;;2.87;1.98;;;;;;;7.97;82.38;97405.20;1653480;85;25771;-73
2022/04/08 01:22:41;;;;;;;3.20;2.20;;;;;;;7.95;82.67;97408.83;1640830;85;25853;-74
2022/04/08 01:25:10;;;;;;;5.47;1.95;;;;;;;7.93;83.21;97410.31;1651474;85;27324;-73
2022/04/08 01:27:38;;;;;;;3.47;1.50;;;;;;;7.92;82.93;97409.55;1656513;85;25405;-73
2022/04/08 01:30:08;;;;;;;2.25;1.77;;;;;;;7.90;83.62;97412.38;1651696;85;25835;-73
2022/04/08 01:32:35;;;;;;;3.30;1.90;;;;;;;7.90;83.06;97416.41;1663320;85;25689;-73
2022/04/08 01:35:03;;;;;;;6.80;2.12;;;;;;;7.89;82.97;97422.95;1655472;85;25650;-73
2022/04/08 01:37:29;;;;;;;3.15;2.37;;;;;;;7.89;83.04;97424.30;1656403;85;27300;-73
2022/04/08 01:39:56;;;;;;;2.67;2.22;;;;;;;7.88;83.35;97435.61;1641680;85;25628;-73
2022/04/08 01:42:24;;;;;;;2.75;2.00;;;;;;;7.85;83.87;97437.70;1643816;85;25420;-73
2022/04/08 01:44:53;;;;;;;4.87;2.42;;;;;;;7.84;83.86;97440.94;1660149;85;25645;-73
2022/04/08 01:47:21;;;;;;;4.65;2.12;;;;;;;7.81;83.80;97440.88;1647843;85;25862;-73
2022/04/08 01:49:48;;;;;;;5.35;2.30;;;;;;;7.81;83.56;97446.27;1650471;85;27672;-73
2022/04/08 01:52:14;;;;;;;2.92;2.22;;;;;;;7.80;83.20;97447.42;1645265;85;25638;-73
2022/04/08 01:54:41;;;;;;;3.58;2.22;;;;;;;7.79;83.05;97455.27;1656041;84;25905;-73
2022/04/08 01:57:07;;;;;;;2.45;2.20;;;;;;;7.76;83.32;97455.41;1671515;85;25734;-73
2022/04/08 01:59:34;;;;;;;2.58;2.33;;;;;;;7.74;83.08;97463.64;1665255;85;25476;-73
2022/04/08 02:02:02;;;;;;;3.87;1.95;;;;;;;7.73;83.71;97468.25;1653963;85;27421;-72
2022/04/08 02:04:29;;;;;;;4.90;2.33;;;;;;;7.71;82.98;97473.20;1650272;85;25418;-72
2022/04/08 02:06:56;;;;;;;5.17;2.27;;;;;;;7.70;82.97;97477.61;1649545;85;25310;-74
2022/04/08 02:09:22;;;;;;;3.75;1.95;;;;;;;7.67;82.92;97481.20;1653253;81;25838;-76
2022/04/08 02:11:48;;;;;;;6.87;2.12;;;;;;;7.69;82.97;97480.09;1652027;84;25455;-74
2022/04/08 02:14:15;;;;;;;3.20;1.80;;;;;;;7.67;82.44;97475.83;1648014;83;27783;-73
2022/04/08 02:16:41;;;;;;;5.92;1.98;;;;;;;7.70;82.49;97485.69;1642276;83;25323;-75
2022/04/08 02:19:08;;;;;;;6.58;1.98;;;;;;;7.70;81.81;97478.96;1697566;84;25470;-74
2022/04/08 02:21:34;;;;;;;3.37;1.80;;;;;;;7.70;81.46;97484.34;1679975;83;25591;-74
2022/04/08 02:24:03;;;;;;;4.78;1.65;;;;;;;7.71;80.59;97465.70;1690684;83;25448;-77
2022/04/08 02:26:29;;;;;;;3.20;1.55;;;;;;;7.74;79.80;97483.25;1697348;83;27298;-75
2022/04/08 02:28:56;;;;;;;4.60;2.02;;;;;;;7.76;78.33;97481.55;1687367;83;25512;-75
2022/04/08 02:31:22;;;;;;;2.87;1.80;;;;;;;7.80;78.00;97482.40;1667323;83;25540;-74
2022/04/08 02:33:49;;;;;;;3.67;1.57;;;;;;;7.82;76.79;97468.78;1681125;83;25601;-73
2022/04/08 02:36:15;;;;;;;4.85;2.00;;;;;;;7.85;77.09;97473.45;1696408;84;25245;-73
2022/04/08 02:38:43;;;;;;;9.13;2.10;;;;;;;7.86;75.90;97480.38;1680235;84;27225;-73
2022/04/08 02:41:10;;;;;;;4.20;1.77;;;;;;;7.89;76.10;97481.58;1661146;83;25515;-73
2022/04/08 02:43:36;;;;;;;5.05;2.20;;;;;;;7.91;75.03;97481.99;1690861;83;25456;-73
2022/04/08 02:46:03;;;;;;;3.92;1.70;;;;;;;7.93;74.20;97488.36;1680376;83;25742;-73
2022/04/08 02:48:29;;;;;;;5.90;1.90;;;;;;;7.95;74.22;97498.20;1686223;83;25854;-73
2022/04/08 02:50:56;;;;;;;4.25;1.50;;;;;;;7.96;74.24;97500.53;1676541;83;27880;-73
2022/04/08 02:53:22;;;;;;;5.85;1.90;;;;;;;7.96;73.14;97491.69;1676651;83;25636;-73
2022/04/08 02:55:49;;;;;;;4.45;1.35;;;;;;;7.95;73.33;97507.62;1682947;83;25757;-73
2022/04/08 02:58:15;;;;;;;5.22;1.55;;;;;;;7.91;72.31;97490.06;1675763;83;25854;-73
2022/04/08 03:00:42;;;;;;;4.22;2.17;;;;;;;7.92;72.60;97509.70;1696873;83;25714;-74
2022/04/08 03:03:08;;;;;;;6.00;1.57;;;;;;;7.89;72.26;97515.22;1674317;84;27299;-73
2022/04/08 03:05:34;;;;;;;3.65;1.35;;;;;;;7.89;72.46;97513.88;1660807;83;25745;-73
2022/04/08 03:08:01;;;;;;;4.65;1.75;;;;;;;7.88;72.27;97514.23;1691836;83;25823;-73
2022/04/08 03:10:27;;;;;;;4.28;1.55;;;;;;;7.88;71.16;97515.00;1663114;83;25654;-73
2022/04/08 03:12:54;;;;;;;6.35;2.00;;;;;;;7.91;72.06;97518.91;1648730;84;25598;-73
2022/04/08 03:15:20;;;;;;;4.40;1.60;;;;;;;7.92;71.83;97516.44;1689460;83;27299;-73
2022/04/08 03:17:49;;;;;;;7.00;1.72;;;;;;;7.91;71.79;97518.33;1685414;83;25627;-73
2022/04/08 03:20:15;;;;;;;5.45;2.58;;;;;;;7.91;71.72;97522.36;1673578;83;25385;-73
2022/04/08 03:22:41;;;;;;;6.08;1.80;;;;;;;7.90;71.39;97528.10;1675387;83;25654;-73
2022/04/08 03:25:08;;;;;;;5.75;1.70;;;;;;;7.90;71.21;97531.59;1686576;83;25857;-73
2022/04/08 03:27:34;;;;;;;6.95;1.42;;;;;;;7.91;70.86;97525.63;1665355;83;28044;-73
2022/04/08 03:30:01;;;;;;;7.47;1.95;;;;;;;7.90;70.73;97536.97;1688279;83;25555;-73
2022/04/08 03:32:27;;;;;;;3.17;1.42;;;;;;;7.90;70.30;97528.10;1679041;83;25810;-73
2022/04/08 03:34:59;;;;;;;5.28;1.72;;;;;;;7.91;70.46;97529.09;1678836;83;26360;-73
2022/04/08 03:37:29;;;;;;;5.97;1.65;;;;;;;7.91;69.95;97544.47;1667855;83;25495;-73
2022/04/08 03:39:56;;;;;;;3.52;1.50;;;;;;;7.91;69.83;97535.82;1672682;83;27323;-73
2022/04/08 03:42:23;;;;;;;3.15;1.55;;;;;;;7.91;69.90;97530.44;1675668;83;25490;-73
2022/04/08 03:44:51;;;;;;;4.03;1.60;;;;;;;7.91;69.64;97541.78;1690659;83;25621;-73
2022/04/08 03:47:22;;;;;;;3.30;1.55;;;;;;;7.92;69.40;97544.69;1672520;83;25853;-73
2022/04/08 03:49:49;;;;;;;4.55;1.70;;;;;;;7.92;69.26;97544.11;1699846;83;25432;-73
2022/04/08 03:52:16;;;;;;;4.03;1.47;;;;;;;7.92;68.57;97549.50;1646303;83;27103;-73
2022/04/08 03:54:42;;;;;;;4.17;1.40;;;;;;;7.92;68.76;97549.50;1670901;83;25847;-73
2022/04/08 03:57:09;;;;;;;3.87;1.42;;;;;;;7.93;68.57;97545.66;1698621;84;25740;-73
2022/04/08 03:59:35;;;;;;;4.30;1.55;;;;;;;7.93;68.28;97550.27;1674709;83;25599;-73
2022/04/08 04:02:02;;;;;;;4.62;1.50;;;;;;;7.94;68.09;97550.48;1672808;84;25531;-73
2022/04/08 04:04:28;;;;;;;5.30;1.45;;;;;;;7.92;68.24;97545.46;1675641;84;27382;-73
2022/04/08 04:06:55;;;;;;;5.17;1.37;;;;;;;7.94;67.88;97549.91;1685742;83;25481;-73
2022/04/08 04:09:21;;;;;;;5.67;1.72;;;;;;;7.94;68.07;97549.14;1674165;83;25378;-73
2022/04/08 04:11:48;;;;;;;5.70;1.62;;;;;;;7.96;68.15;97553.59;1669280;84;26134;-73
2022/04/08 04:14:14;;;;;;;6.28;1.47;;;;;;;7.95;68.20;97551.48;1675236;84;25778;-73
2022/04/08 04:16:41;;;;;;;6.20;1.70;;;;;;;7.96;68.45;97564.36;1668645;83;27980;-72
2022/04/08 04:19:07;;;;;;;5.28;1.60;;;;;;;7.95;68.37;97574.36;1670941;83;25363;-72
2022/04/08 04:21:34;;;;;;;7.03;1.60;;;;;;;7.93;68.49;97586.03;1670965;83;25465;-72
2022/04/08 04:24:00;;;;;;;5.33;1.55;;;;;;;7.91;68.79;97602.34;1680069;83;25611;-72
2022/04/08 04:26:27;;;;;;;4.85;1.87;;;;;;;7.85;69.64;97606.66;1669226;83;25402;-72
2022/04/08 04:28:53;;;;;;;4.15;1.75;;;;;;;7.80;70.39;97607.53;1685650;83;28032;-74
2022/04/08 04:31:19;;;;;;;4.33;2.02;;;;;;;7.69;71.42;97604.61;1678787;83;26336;-74
2022/04/08 04:33:46;;;;;;;4.42;2.05;;;;;;;7.55;71.85;97603.77;1679086;83;25732;-73
2022/04/08 04:36:13;;;;;;;4.08;2.00;;;;;;;7.44;71.72;97598.73;1679508;84;25593;-73
2022/04/08 04:38:40;;;;;;;7.85;1.98;;;;;;;7.29;72.49;97594.42;1672517;83;25388;-73
2022/04/08 04:41:06;;;;;;;3.42;1.77;;;;;;;7.25;72.94;97594.92;1667051;83;28009;-73
2022/04/08 04:43:33;;;;;;;7.20;1.87;;;;;;;7.18;73.33;97606.85;1685160;84;25476;-73
2022/04/08 04:45:59;;;;;;;5.00;1.60;;;;;;;7.10;73.27;97597.87;1674787;83;25480;-73
2022/04/08 04:48:26;;;;;;;4.30;1.87;;;;;;;7.06;73.78;97609.09;1665109;83;26182;-74
2022/04/08 04:50:56;;;;;;;4.62;1.57;;;;;;;7.03;74.07;97608.47;1663211;83;25466;-73
2022/04/08 04:53:24;;;;;;;5.60;2.10;;;;;;;7.01;73.74;97608.59;1673586;83;27331;-73
2022/04/08 04:55:50;;;;;;;6.03;1.70;;;;;;;7.00;73.92;97610.52;1677536;83;25557;-73
2022/04/08 04:58:16;;;;;;;4.75;1.60;;;;;;;6.97;73.47;97612.55;1674361;83;25824;-74
2022/04/08 05:00:43;;;;;;;4.75;1.87;;;;;;;6.97;73.69;97621.19;1677079;83;25646;-72
2022/04/08 05:03:11;;;;;;;5.17;1.50;;;;;;;6.99;73.19;97612.20;1695408;84;25628;-73
2022/04/08 05:05:38;;;;;;;4.55;1.82;;;;;;;7.01;73.01;97630.87;1704970;81;27425;-73
2022/04/08 05:08:06;;;;;;;4.33;1.87;;;;;;;7.03;72.98;97628.63;1699163;83;25751;-74
2022/04/08 05:10:34;;;;;;;5.65;1.82;;;;;;;7.07;72.61;97625.45;1712032;81;25538;-73
2022/04/08 05:13:00;;;;;;;4.00;1.57;;;;;;;7.10;72.27;97628.78;1707971;82;25778;-73
2022/04/08 05:15:29;;;;;;;4.47;1.67;;;;;;;7.12;72.33;97636.50;1701916;82;25685;-73
2022/04/08 05:17:59;;;;;;;6.08;1.98;;;;;;;7.19;72.22;97627.23;1713314;82;27873;-75
2022/04/08 05:20:29;;;;;;;6.65;2.10;;;;;;;7.23;72.54;97657.66;1642147;85;26026;-73
2022/04/08 05:22:55;;;;;;;7.22;2.10;;;;;;;7.23;72.09;97638.84;1638067;85;25887;-73
2022/04/08 05:25:22;;;;;;;5.05;1.90;;;;;;;7.22;72.46;97650.73;1649242;87;25579;-73
2022/04/08 05:27:51;;;;;;;5.20;1.67;;;;;;;7.21;71.48;97649.17;1633743;86;25712;-73
2022/04/08 05:30:18;;;;;;;5.40;1.80;;;;;;;7.20;72.01;97659.73;1643937;86;27600;-73
2022/04/08 05:32:48;;;;;;;5.05;2.10;;;;;;;7.17;72.30;97685.96;1571335;89;26438;-74
2022/04/08 05:35:18;;;;;;;3.85;1.90;;;;;;;7.11;72.61;97663.92;1598029;88;25906;-73
2022/04/08 05:37:48;;;;;;;5.95;3.33;;;;;;;7.10;72.86;97673.13;1568963;90;26302;-72
2022/04/08 05:40:20;;;;;;;3.47;1.60;;;;;;;7.08;73.16;97675.94;1628943;87;25475;-74
2022/04/08 05:42:48;;;;;;;4.55;1.67;;;;;;;7.08;73.33;97687.50;1611540;87;27661;-72
2022/04/08 05:45:21;;;;;;;4.95;1.92;;;;;;;7.04;73.13;97679.89;1644204;86;25693;-73
2022/04/08 05:47:54;;;;;;;3.02;1.60;;;;;;;7.03;73.25;97684.27;1651994;86;25591;-72
2022/04/08 05:50:20;;;;;;;7.42;1.82;;;;;;;7.02;73.51;97684.08;1634776;86;26198;-72
2022/04/08 05:52:48;;;;;;;9.80;2.30;;;;;;;7.02;73.46;97690.22;1639678;86;26096;-72
2022/04/08 05:55:15;;;;;;;4.60;2.08;;;;;;;7.02;73.19;97684.08;1651840;86;27276;-73
2022/04/08 05:57:42;;;;;;;7.45;1.95;;;;;;;7.00;73.88;97689.80;1662661;83;25708;-72
2022/04/08 06:00:13;;;;;;;7.75;2.47;;;;;;;7.01;73.68;97683.27;1689461;84;25836;-72
2022/04/08 06:02:45;;;;;;;5.95;1.90;;;;;;;7.01;73.76;97684.63;1692473;83;26176;-72
2022/04/08 06:05:15;;;;;;;5.80;1.87;;;;;;;7.02;73.74;97682.16;1690609;83;25579;-73
2022/04/08 06:07:50;;;;;;;3.90;1.70;;;;;;;7.06;72.87;97694.33;1695647;83;27899;-72
2022/04/08 06:10:23;;;;;;;5.62;1.65;;;;;;;7.10;72.99;97680.43;1701465;83;25559;-73
2022/04/08 06:12:47;;;;;;;6.00;1.92;;;;;;;7.23;72.55;97679.73;1693267;84;25800;-73
2022/04/08 06:15:13;;;;;;;4.97;1.98;;;;;;;7.30;71.70;97694.68;1699705;84;25628;-73
2022/04/08 06:17:40;;;;;;;5.75;1.80;;;;;;;7.34;71.58;97697.45;1695550;83;25559;-72
2022/04/08 06:20:10;;;;;;;6.85;1.72;;;;;;;7.35;72.04;97693.64;1690960;84;27383;-73
2022/04/08 06:22:40;;;;;;;4.75;1.60;;;;;;;7.33;71.98;97687.27;1700282;83;25499;-73
2022/04/08 06:25:12;;;;;;;7.15;1.80;;;;;;;7.29;72.64;97692.56;1691382;84;25781;-73
2022/04/08 06:27:39;;;;;;;3.77;1.92;;;;;;;7.26;72.33;97696.52;1695477;84;25607;-73
2022/04/08 06:30:14;;;;;;;5.60;1.77;;;;;;;7.25;72.49;97702.47;1689503;83;25694;-72
2022/04/08 06:32:43;;;;;;;2.90;1.57;;;;;;;7.27;72.34;97712.31;1691269;83;27911;-71
2022/04/08 06:35:10;;;;;;;1.85;1.37;;;;;;;7.26;72.59;97705.94;1692292;83;25775;-73
2022/04/08 06:37:37;;;;;;;3.95;1.50;;;;;;;7.22;73.02;97707.20;1649632;85;26057;-71
2022/04/08 06:40:07;;;;;;;6.95;1.67;;;;;;;7.16;72.43;97689.00;1658102;85;25767;-70
2022/04/08 06:42:33;;;;;;;;;;;;;;;7.11;72.27;97698.09;1643523;85;25505;-69
2022/04/08 06:45:01;;;;;;;4.72;1.60;;;;;;;7.10;72.92;97695.21;1657336;84;28154;-70
2022/04/08 06:47:27;;;;;;;6.40;2.10;;;;;;;7.06;73.19;97692.99;1655359;84;25800;-70
2022/04/08 06:49:54;;;;;;;7.42;1.75;;;;;;;7.04;73.10;97696.02;1690839;83;25415;-71
2022/04/08 06:52:21;;;;;;;4.08;2.15;;;;;;;7.02;72.83;97714.98;1713695;82;25590;-70
2022/04/08 06:54:48;;;;;;;3.45;1.40;;;;;;;6.97;73.37;97748.27;1709660;83;26399;-71
2022/04/08 06:57:15;;;;;;;2.10;0.70;;;;;;;6.71;76.15;97829.37;1705593;82;27288;-71
2022/04/08 06:59:42;;;;;;;3.12;1.10;;;;;;;6.36;75.21;97795.81;1710576;82;25099;-71
2022/04/08 07:02:11;;;;;;;2.83;1.50;;;;;;;6.05;75.78;97781.72;1710765;83;25599;-70
2022/04/08 07:04:38;;;;;;;1.98;1.37;;;;;;;5.88;76.08;97770.67;1692999;82;25811;-70
2022/04/08 07:07:05;;;;;;;2.70;1.20;;;;;;;5.81;78.29;97777.17;1689315;83;25467;-70
2022/04/08 07:09:34;;;;;;;3.33;1.67;;;;;;;5.86;78.76;97778.28;1677132;84;27362;-70
2022/04/08 07:12:02;;;;;;;3.25;2.02;;;;;;;5.99;79.13;97787.09;1699138;82;25859;-70
2022/04/08 07:14:28;;;;;;;7.10;2.40;;;;;;;6.10;79.77;97796.81;1677602;83;25632;-69
2022/04/08 07:16:55;;;;;;;3.70;1.67;;;;;;;6.20;79.58;97799.02;1680496;83;27781;-69
2022/04/08 07:19:22;;;;;;;5.92;2.17;;;;;;;6.32;79.51;97798.20;1693389;83;25703;-69
2022/04/08 07:21:49;;;;;;;4.10;2.50;;;;;;;6.46;79.56;97803.18;1698641;82;27522;-69
2022/04/08 07:24:16;;;;;;;5.70;1.95;;;;;;;6.64;79.80;97798.27;1699842;83;25623;-70
2022/04/08 07:26:42;;;;;;;6.53;2.35;;;;;;;6.86;80.32;97822.45;1661143;83;25450;-69
2022/04/08 07:29:09;;;;;;;11.22;5.95;;;;;;;7.07;79.95;97797.47;1672047;83;25732;-69
2022/04/08 07:31:36;;;;;;;3.75;2.70;;;;;;;7.30;79.84;97806.27;1691386;83;25814;-69
2022/04/08 07:34:03;;;;;;;5.58;2.37;;;;;;;7.45;78.57;97802.02;1663706;85;27471;-69
2022/04/08 07:36:29;;;;;;;3.33;2.22;;;;;;;7.50;77.14;97813.86;1658946;84;25800;-69
2022/04/08 07:38:56;;;;;;;3.08;1.95;;;;;;;7.54;76.55;97812.02;1699442;83;25918;-70
2022/04/08 07:41:23;;;;;;;4.72;2.10;;;;;;;7.59;75.50;97810.98;1683124;83;25708;-70
2022/04/08 08:08:58;;;;;;;1.90;1.52;;;;;;;7.80;72.18;97895.48;1864833;76;35324;-73
2022/04/08 08:11:24;;;;;;;5.12;2.30;;;;;;;7.93;72.68;97906.33;1807579;78;25673;-74
2022/04/08 08:13:51;;;;;;;4.58;1.92;;;;;;;8.13;72.20;97895.64;1816596;78;27470;-74
2022/04/08 08:16:17;;;;;;;3.55;2.10;;;;;;;8.25;68.82;97892.05;1823577;78;25704;-73
2022/04/08 08:18:44;;;;;;;3.98;1.80;;;;;;;8.29;70.65;97907.70;1809299;78;25903;-73
2022/04/08 08:21:10;;;;;;;4.53;1.90;;;;;;;8.38;69.71;97910.43;1819591;78;25529;-74
2022/04/08 08:23:37;;;;;;;3.40;1.72;;;;;;;8.38;70.02;97921.20;1819703;78;25842;-73
2022/04/08 08:26:03;;;;;;;4.30;2.92;;;;;;;8.39;68.85;97926.81;1807937;78;28023;-73
2022/04/08 08:28:29;;;;;;;3.12;1.65;;;;;;;8.39;69.37;97928.70;1797090;78;25574;-72
2022/04/08 08:30:56;;;;;;;2.00;1.30;;;;;;;8.47;68.98;97937.77;1823901;78;25676;-71
2022/04/08 08:33:23;;;;;;;2.70;1.60;;;;;;;8.67;66.84;97937.23;1821497;78;25529;-72
2022/04/08 08:35:50;;;;;;;2.92;1.70;;;;;;;9.13;67.48;97964.34;1744312;81;25631;-73
2022/04/08 08:38:17;;;;;;;5.95;2.15;;;;;;;9.27;66.84;97960.55;1787028;80;27482;-73
2022/04/08 08:40:44;;;;;;;3.85;2.08;;;;;;;9.33;64.87;97940.25;1745321;81;25781;-74
2022/04/08 08:43:19;;;;;;;2.95;1.50;;;;;;;9.34;65.43;97951.23;1746869;82;25620;-73
2022/04/08 08:45:49;;;;;;;3.87;1.62;;;;;;;9.36;65.09;97940.09;1761885;81;25646;-73
2022/04/08 08:48:16;;;;;;;4.33;1.87;;;;;;;9.33;65.06;97971.28;1739732;80;25720;-73
2022/04/08 08:50:48;;;;;;;1.57;1.45;;;;;;;9.40;65.57;97974.68;1772532;80;28088;-73
2022/04/08 08:53:19;;;;;;;3.95;1.85;;;;;;;9.41;65.13;97978.16;1753916;81;25457;-73
2022/04/08 08:55:48;;;;;;;2.35;1.75;;;;;;;9.33;63.78;97980.72;1745492;82;25271;-71
2022/04/08 08:58:16;;;;;;;3.60;1.52;;;;;;;9.38;64.24;97993.70;1759307;81;25574;-71
2022/04/08 09:00:43;;;;;;;1.92;1.37;;;;;;;9.39;62.80;97983.90;1750127;81;25630;-73
2022/04/08 09:03:09;;;;;;;7.28;1.70;;;;;;;9.44;61.84;97984.19;1754628;81;27494;-73
2022/04/08 09:05:43;;;;;;;2.37;1.10;;;;;;;9.55;61.40;98002.69;1759068;81;25563;-74
2022/04/08 09:08:11;;;;;;;1.85;1.55;;;;;;;9.61;59.42;98001.27;1753636;80;25649;-74
2022/04/08 09:10:48;;;;;;;2.35;1.40;;;;;;;9.93;60.83;97990.25;1772343;80;25846;-74
2022/04/08 09:13:23;;;;;;;2.45;1.37;;;;;;;9.95;60.04;97999.34;1763662;81;25872;-73
2022/04/08 09:15:58;;;;;;;4.37;1.30;;;;;;;9.97;59.76;98009.98;1767479;81;27487;-74
2022/04/08 09:18:30;;;;;;;2.87;1.40;;;;;;;9.94;58.60;98001.83;1768911;80;25879;-75
2022/04/08 09:20:55;;;;;;;3.55;1.60;;;;;;;10.08;59.57;98009.60;1764449;80;25553;-71
2022/04/08 09:23:21;;;;;;;2.75;1.40;;;;;;;10.07;58.37;97999.93;1745813;81;26324;-70
2022/04/08 09:25:49;;;;;;;4.78;1.70;;;;;;;10.10;59.55;98017.34;1776502;80;25784;-71
2022/04/08 09:28:18;;;;;;;3.08;1.40;;;;;;;10.05;60.08;98023.05;1711521;81;27523;-70
2022/04/08 09:30:55;;;;;;;2.00;1.72;;;;;;;10.10;59.83;98036.25;1750632;81;25643;-69
2022/04/08 09:33:25;;;;;;;3.65;1.67;;;;;;;10.58;59.41;98023.12;1777719;80;26240;-71
2022/04/08 09:35:55;;;;;;;4.42;1.37;;;;;;;11.49;60.01;98020.99;1738727;81;25627;-72
2022/04/08 09:38:26;;;;;;;3.02;1.47;;;;;;;12.02;58.68;98024.05;1756142;81;25446;-68
2022/04/08 09:41:02;;;;;;;1.37;1.07;;;;;;;12.33;53.64;98036.34;1765912;81;27583;-73
2022/04/08 09:43:38;;;;;;;2.65;1.90;;;;;;;12.08;51.85;98034.77;1754184;81;25790;-79
2022/04/08 09:46:27;;;;;;;2.85;1.35;;;;;;;11.69;54.30;98037.84;1769423;81;25405;-76
2022/04/08 09:48:56;;;;;;;3.33;1.42;;;;;;;11.27;54.48;98047.03;1754391;81;25738;-76
2022/04/08 09:51:24;;;;;;;2.80;1.27;;;;;;;10.84;55.05;98037.23;1755600;79;25395;-76
2022/04/08 09:54:00;;;;;;;2.20;1.40;;;;;;;10.52;55.28;98071.11;1767945;81;32560;-75
2022/04/08 09:56:29;;;;;;;10.58;1.50;;;;;;;10.30;56.31;98058.59;1757536;81;26212;-75
2022/04/08 09:59:09;;;;;;;2.08;1.32;;;;;;;10.12;56.58;98042.66;1765949;80;25218;-74
2022/04/08 10:01:37;;;;;;;2.58;1.55;;;;;;;10.02;57.15;98050.78;1765615;80;25793;-72
2022/04/08 10:04:11;;;;;;;3.27;1.60;;;;;;;9.99;58.15;98060.94;1757550;81;25278;-72
2022/04/08 10:06:42;;;;;;;2.70;1.40;;;;;;;10.01;58.13;98058.66;1772554;80;26011;-75
2022/04/08 10:09:14;;;;;;;1.77;1.60;;;;;;;10.27;58.35;98057.95;1770563;80;25393;-73
2022/04/08 10:12:09;;;;;;;3.85;1.40;;;;;;;10.43;58.27;98068.07;1756958;81;25659;-72
2022/04/08 10:14:58;;;;;;;2.47;1.47;;;;;;;10.54;57.99;98070.16;1781346;80;25720;-74
2022/04/08 10:17:24;;;;;;;1.20;1.10;;;;;;;10.70;57.44;98076.22;1743122;81;25691;-72
2022/04/08 10:19:51;;;;;;;1.25;1.15;;;;;;;11.67;56.18;98102.43;1758496;80;28206;-71
2022/04/08 10:22:20;;;;;;;4.30;1.50;;;;;;;12.02;55.70;98074.98;1783288;80;25592;-71
2022/04/08 10:24:55;;;;;;;2.47;1.70;;;;;;;12.12;55.26;98078.92;1766989;80;26320;-74
2022/04/08 10:27:38;;;;;;;2.17;1.12;;;;;;;12.27;54.57;98077.90;1772513;80;25635;-75
2022/04/08 10:30:16;;;;;;;1.77;1.27;;;;;;;12.28;53.70;98074.05;1758584;80;26269;-77
2022/04/08 10:32:44;;;;;;;2.00;1.32;;;;;;;12.44;53.84;98063.52;1753775;81;27490;-75
2022/04/08 10:35:19;;;;;;;2.90;1.20;;;;;;;12.49;54.01;98077.50;1770278;80;25313;-75
2022/04/08 10:38:01;;;;;;;4.50;1.50;;;;;;;12.39;54.31;98085.55;1761723;80;25381;-76
2022/04/08 10:40:39;;;;;;;2.45;1.62;;;;;;;12.00;52.64;98079.20;1783403;80;25810;-77
2022/04/08 10:43:09;;;;;;;2.58;1.50;;;;;;;11.50;52.46;98078.05;1770325;80;25707;-74
2022/04/08 10:45:37;;;;;;;3.08;1.50;;;;;;;11.14;53.32;98082.44;1770057;80;28103;-73
2022/04/08 10:48:16;;;;;;;3.90;2.00;;;;;;;10.84;53.80;98099.98;1758907;80;25567;-73
2022/04/08 10:50:42;;;;;;;3.23;1.73;;;;;;;10.51;55.49;98097.36;1757313;81;25944;-72
2022/04/08 10:53:16;;;;;;;4.05;2.25;;;;;;;10.15;58.86;98109.44;1770885;80;25629;-72
2022/04/08 10:55:54;;;;;;;5.53;2.30;;;;;;;9.83;59.53;98119.11;1757879;80;25450;-72
2022/04/08 10:58:51;;;;;;;7.55;2.42;;;;;;;9.53;61.16;98126.41;1782513;80;28011;-71
2022/04/08 11:01:24;;;;;;;4.78;2.40;;;;;;;9.24;62.01;98139.30;1772409;80;25604;-71
2022/04/08 11:03:59;;;;;;;3.05;2.75;;;;;;;9.13;63.79;98164.69;1764903;80;25669;-71
2022/04/08 11:06:28;;;;;;;4.55;2.90;;;;;;;9.30;66.20;98166.22;1760262;80;25491;-70
2022/04/08 11:08:56;;;;;;;4.08;2.65;;;;;;;9.37;65.10;98151.34;1762953;80;25476;-72
2022/04/08 11:11:31;;;;;;;33.50;21.25;;;;;;;9.29;65.14;98160.60;1771044;80;27464;-72
2022/04/08 11:14:00;;;;;;;5.20;2.30;;;;;;;9.19;65.16;98167.12;1748352;81;25826;-72
2022/04/08 11:16:33;;;;;;;3.62;2.25;;;;;;;8.97;64.55;98178.20;1780028;80;25746;-73
2022/04/08 11:19:07;;;;;;;4.75;2.75;;;;;;;8.79;65.05;98178.34;1787028;80;25784;-71
2022/04/08 11:21:39;;;;;;;3.20;2.35;;;;;;;8.67;65.45;98209.43;1787197;80;25306;-73
2022/04/08 11:24:11;;;;;;;2.58;2.10;;;;;;;8.46;65.52;98228.51;1787070;80;28036;-73
2022/04/08 11:26:53;;;;;;;3.47;2.20;;;;;;;8.21;66.35;98228.61;1787172;80;25661;-73
2022/04/08 11:29:27;;;;;;;3.00;2.22;;;;;;;8.01;68.16;98243.25;1787143;80;25731;-73
2022/04/08 11:32:09;;;;;;;4.15;2.00;;;;;;;7.76;68.33;98235.80;1787156;80;25625;-73
2022/04/08 11:34:37;;;;;;;2.52;1.70;;;;;;;7.60;69.07;98237.07;1787393;80;25320;-72
2022/04/08 11:37:04;;;;;;;3.20;2.33;;;;;;;7.44;70.45;98226.77;1787064;80;27497;-71
2022/04/08 11:39:31;;;;;;;4.37;1.98;;;;;;;7.44;70.21;98228.92;1787095;80;25392;-72
2022/04/08 11:42:01;;;;;;;3.37;2.15;;;;;;;7.71;73.06;98231.22;1787136;80;26128;-73
2022/04/08 11:44:31;;;;;;;4.05;2.12;;;;;;;8.14;74.23;98241.31;1756530;80;25607;-73
2022/04/08 11:47:07;;;;;;;2.27;1.62;;;;;;;8.94;74.21;98238.22;1786195;80;25408;-74
2022/04/08 11:49:33;;;;;;;1.37;1.00;;;;;;;9.82;74.44;98234.41;1741210;81;27469;-73
2022/04/08 11:52:03;;;;;;;2.65;1.27;;;;;;;10.36;70.07;98237.44;1755930;80;25520;-73
2022/04/08 11:54:37;;;;;;;;;;;;;;;10.23;67.85;98244.88;1749031;80;25650;-73
2022/04/08 11:57:05;;;;;;;2.85;1.87;;;;;;;9.93;66.39;98252.75;1745367;81;25708;-74
2022/04/08 11:59:33;;;;;;;1.77;1.25;;;;;;;9.74;66.95;98242.16;1745698;82;25558;-75
2022/04/08 12:02:01;;;;;;;1.20;1.10;;;;;;;9.91;67.13;98253.13;1745650;82;28291;-73
2022/04/08 12:04:27;;;;;;;4.22;1.22;;;;;;;10.08;66.97;98255.98;1750006;78;25738;-75
2022/04/08 12:06:54;;;;;;;1.35;1.25;;;;;;;10.18;67.39;98247.86;1756675;81;25750;-73
2022/04/08 12:09:22;;;;;;;2.25;1.60;;;;;;;10.34;66.73;98254.59;1760938;81;25815;-73
2022/04/08 12:11:48;;;;;;;2.87;1.70;;;;;;;10.78;66.80;98263.70;1767599;81;25630;-72
2022/04/08 12:14:15;;;;;;;2.17;1.67;;;;;;;11.64;67.61;98254.22;1750385;81;28143;-73